INFORMACIÓN METAR y TAF
METAR FOR LESA
ADDS - METARS form results

(0508 UTC 14 August 2020)
Data provider http://aviationweather.gov/metar/data/
 
METAR text: LESA 140500Z VRB01KT CAVOK 10/08 Q1018
Conditions at: LESA (SALAMANCA (CIV/M, ES) observed 0500 UTC 14 August 2020
Temperature: 10.0°C (50°F)
Dewpoint: 8.0°C (46°F) [RH = 87%]
Pressure (altimeter): 30.06 inches Hg (1018.0 mb)
Winds: variable direction winds at 1 MPH (1 knots; 0.5 m/s)
Visibility: 6 or more miles (10+ km)
Ceiling: ceiling and visibility are OK
Clouds: unknown
Weather: no significant weather observed at this time

METAR text: LESA 140430Z AUTO 07001KT CAVOK 10/09 Q1017
Conditions at: LESA (SALAMANCA (CIV/M, ES) observed 0430 UTC 14 August 2020
Temperature: 10.0°C (50°F)
Dewpoint: 9.0°C (48°F) [RH = 93%]
Pressure (altimeter): 30.03 inches Hg (1017.0 mb)
Winds: from the ENE (70 degrees) at 1 MPH (1 knots; 0.5 m/s)
Visibility: 6 or more miles (10+ km)
Ceiling: ceiling and visibility are OK
Clouds: unknown
Weather: no significant weather observed at this time

Forecast for: LESA (SALAMANCA (CIV/M, ES)
Text: TAF LESA 140200Z 1403/1503 VRB05KT CAVOK TX31/1415Z TN11/1405Z
Forecast period: 0300 to 1100 UTC 14 August 2020
Forecast type: FROM: standard forecast or significant change
Winds: variable direction winds at 6 MPH (5 knots; 2.6 m/s)
Visibility: 6 or more miles (10+ km)
Ceiling: unknown
Clouds: missing
Weather: no significant weather forecast for this period
Text: BECMG 1411/1413 24010KT
Forecast period: 1100 UTC 14 August 2020 to 0300 UTC 15 August 2020
Forecast type: BECOMING: Conditions expected to become as follows by 1300 UTC 14 August 2020
Winds: from the WSW (240 degrees) at 12 MPH (10 knots; 5.1 m/s)
Visibility: 6 or more miles (10+ km)
Ceiling: unknown
Clouds: missing
Weather: no significant weather forecast for this period

 MAPA DE AEROPUERTO

 INFORMACIÓN DE PISTA
Pista 03 Longitud 8202 ft Ancho 197 ft
Elevación 2595 ft Umbral desplazado 0 ft Rumbo de pista 28
Pista 21 Longitud 8202 ft Ancho 197 ft
Elevación 2586 ft Umbral desplazado 0 ft Rumbo de pista 208
Pista 08 Longitud 6594 ft Ancho 400 ft
Elevación 2587 ft Umbral desplazado 0 ft Rumbo de pista 74
Pista 26 Longitud 6594 ft Ancho 400 ft
Elevación 2588 ft Umbral desplazado 0 ft Rumbo de pista 254

 FRECUANCIAS DEL AEROPUERTO
Tipo APP Nombre APP Frecuencia 124.4 MHZ
Tipo GND Nombre GND Frecuencia 121.85 MHZ
Tipo TWR Nombre TWR Frecuencia 139.3 MHZ

 RADIO AYUDAS DEL AEROPUERTO
Tipo VOR-DME Nombre Salamanca Frecuencia 112200 KHZ
Tipo NDB Nombre Salamanca Frecuencia 399 KHZ
Tipo NDB Nombre Salamanca Frecuencia 423 KHZ
Tipo TACAN Nombre Salamanca Frecuencia 113300 KHZ



Powered by Virtual Airlines Manager [v2.6.2]